createdAt,value
2023-01-27T00:00:19.176Z,-2.02
2023-01-27T00:02:47.601Z,-2.02
2023-01-27T00:05:16.456Z,-2.03
2023-01-27T00:07:48.210Z,-2.03
2023-01-27T00:10:20.085Z,-2.03
2023-01-27T00:13:07.191Z,-2.03
2023-01-27T00:15:35.916Z,-2.03
2023-01-27T00:18:05.176Z,-2.02
2023-01-27T00:20:52.609Z,-2.03
2023-01-27T00:23:41.978Z,-2.05
2023-01-27T00:26:14.813Z,-2.05
2023-01-27T00:28:44.757Z,-2.08
2023-01-27T00:31:32.701Z,-2.11
2023-01-27T00:34:02.263Z,-2.12
2023-01-27T00:36:30.916Z,-2.11
2023-01-27T00:38:59.791Z,-2.10
2023-01-27T00:41:29.012Z,-2.10
2023-01-27T00:43:57.283Z,-2.11
2023-01-27T00:46:25.691Z,-2.11
2023-01-27T00:48:54.047Z,-2.11
2023-01-27T00:51:22.737Z,-2.11
2023-01-27T00:53:51.215Z,-2.11
2023-01-27T00:56:22.787Z,-2.12
2023-01-27T00:58:51.054Z,-2.13
2023-01-27T01:01:19.939Z,-2.14
2023-01-27T01:03:48.489Z,-2.16
2023-01-27T01:06:17.422Z,-2.17
2023-01-27T01:08:46.005Z,-2.16
2023-01-27T01:11:15.477Z,-2.14
2023-01-27T01:13:44.179Z,-2.14
2023-01-27T01:16:18.157Z,-2.16
2023-01-27T01:18:46.704Z,-2.19
2023-01-27T01:21:15.085Z,-2.20
2023-01-27T01:23:46.127Z,-2.22
2023-01-27T01:26:16.294Z,-2.23
2023-01-27T01:28:45.167Z,-2.26
2023-01-27T01:31:17.056Z,-2.28
2023-01-27T01:33:46.701Z,-2.29
2023-01-27T01:36:21.611Z,-2.30
2023-01-27T01:38:49.716Z,-2.30
2023-01-27T01:41:19.946Z,-2.30
2023-01-27T01:43:48.774Z,-2.30
2023-01-27T01:46:17.725Z,-2.30
2023-01-27T01:48:52.637Z,-2.30
2023-01-27T01:51:22.072Z,-2.30
2023-01-27T01:54:03.753Z,-2.31
2023-01-27T01:56:35.619Z,-2.33
2023-01-27T01:59:09.839Z,-2.35
2023-01-27T02:01:40.155Z,-2.37
2023-01-27T02:04:11.921Z,-2.39
2023-01-27T02:07:18.908Z,-2.40
2023-01-27T02:09:49.131Z,-2.39
2023-01-27T02:12:17.714Z,-2.40
2023-01-27T02:14:46.114Z,-2.41
2023-01-27T02:17:15.609Z,-2.42
2023-01-27T02:20:06.756Z,-2.41
2023-01-27T02:22:41.754Z,-2.41
2023-01-27T02:25:33.375Z,-2.44
2023-01-27T05:07:09.329Z,-3.10
2023-01-27T05:09:37.587Z,-3.00
2023-01-27T05:12:06.330Z,-3.00
2023-01-27T05:14:34.622Z,-3.03
2023-01-27T05:17:03.118Z,-3.08
2023-01-27T05:19:31.884Z,-3.12
2023-01-27T05:22:00.552Z,-3.16
2023-01-27T05:24:28.941Z,-3.19
2023-01-27T05:27:00.130Z,-3.19
2023-01-27T05:29:28.480Z,-3.20
2023-01-27T05:31:56.784Z,-3.20
2023-01-27T05:34:25.131Z,-3.20
2023-01-27T05:36:53.411Z,-3.20
2023-01-27T05:39:21.687Z,-3.20
2023-01-27T05:41:50.601Z,-3.21
2023-01-27T05:44:18.758Z,-3.25
2023-01-27T05:46:47.321Z,-3.30
2023-01-27T05:49:15.576Z,-3.37
2023-01-27T05:51:44.529Z,-3.41
2023-01-27T05:54:13.213Z,-3.41
2023-01-27T05:56:42.173Z,-3.41
2023-01-27T05:59:12.335Z,-3.42
2023-01-27T06:01:40.719Z,-3.44
2023-01-27T06:04:10.196Z,-3.44
2023-01-27T06:06:39.644Z,-3.43
2023-01-27T06:09:07.890Z,-3.43
2023-01-27T06:11:36.484Z,-3.44
2023-01-27T06:14:05.072Z,-3.44
2023-01-27T06:16:35.074Z,-3.43
2023-01-27T06:19:03.666Z,-3.40
2023-01-27T06:21:31.955Z,-3.39
2023-01-27T06:24:00.130Z,-3.37
2023-01-27T06:26:29.415Z,-3.35
2023-01-27T06:28:58.766Z,-3.33
2023-01-27T06:31:28.546Z,-3.32
2023-01-27T06:33:56.849Z,-3.31
2023-01-27T06:36:25.292Z,-3.30
2023-01-27T06:38:53.576Z,-3.30
2023-01-27T06:41:22.180Z,-3.28
2023-01-27T06:43:52.994Z,-3.26
2023-01-27T06:46:21.628Z,-3.26
2023-01-27T06:48:51.091Z,-3.27
2023-01-27T06:51:19.778Z,-3.30
2023-01-27T06:53:48.173Z,-3.30
2023-01-27T06:56:17.512Z,-3.27
2023-01-27T06:58:46.358Z,-3.23
2023-01-27T07:01:14.716Z,-3.18
2023-01-27T07:03:45.011Z,-3.17
2023-01-27T07:06:15.297Z,-3.16
2023-01-27T07:08:47.679Z,-3.16
2023-01-27T07:11:16.046Z,-3.18
2023-01-27T07:13:44.418Z,-3.18
2023-01-27T07:16:12.954Z,-3.15
2023-01-27T07:18:41.715Z,-3.12
2023-01-27T07:21:10.479Z,-3.11
2023-01-27T07:23:38.867Z,-3.07
2023-01-27T07:26:19.252Z,-3.05
2023-01-27T07:28:53.337Z,-3.04
2023-01-27T07:31:21.766Z,-3.01
2023-01-27T07:33:53.142Z,-3.03
2023-01-27T07:36:21.347Z,-3.05
2023-01-27T07:38:50.861Z,-3.09
2023-01-27T07:41:19.771Z,-3.09
2023-01-27T07:43:48.004Z,-3.08
2023-01-27T07:46:20.093Z,-3.05
2023-01-27T07:48:48.775Z,-3.02
2023-01-27T07:51:18.401Z,-3.04
2023-01-27T07:53:46.906Z,-3.11
2023-01-27T07:56:15.147Z,-3.17
2023-01-27T07:58:46.729Z,-3.19
2023-01-27T08:01:15.369Z,-3.15
2023-01-27T08:03:44.001Z,-3.12
2023-01-27T08:06:12.575Z,-3.09
2023-01-27T08:08:41.144Z,-3.10
2023-01-27T08:11:11.879Z,-3.09
2023-01-27T08:13:40.838Z,-3.04
2023-01-27T08:16:13.023Z,-3.00
2023-01-27T08:18:42.205Z,-2.95
2023-01-27T08:21:11.650Z,-2.98
2023-01-27T08:23:40.251Z,-3.02
2023-01-27T08:26:09.131Z,-3.01
2023-01-27T08:28:38.245Z,-2.95
2023-01-27T08:31:14.548Z,-2.90
2023-01-27T08:33:44.408Z,-2.86
2023-01-27T08:36:16.425Z,-2.80
2023-01-27T08:38:50.192Z,-2.78
2023-01-27T08:41:24.195Z,-2.77
2023-01-27T08:43:52.467Z,-2.73
2023-01-27T08:46:20.747Z,-2.70
2023-01-27T08:48:50.569Z,-2.64
2023-01-27T08:51:19.389Z,-2.60
2023-01-27T08:53:51.348Z,-2.56
2023-01-27T08:56:21.649Z,-2.49
2023-01-27T08:58:52.369Z,-2.43
2023-01-27T09:01:21.022Z,-2.38
2023-01-27T09:03:49.562Z,-2.36
2023-01-27T09:06:19.468Z,-2.33
2023-01-27T09:09:10.045Z,-2.30
2023-01-27T09:11:41.236Z,-2.29
2023-01-27T09:14:09.626Z,-2.27
2023-01-27T09:16:38.175Z,-2.28
2023-01-27T09:19:06.562Z,-2.32
2023-01-27T09:21:34.986Z,-2.31
2023-01-27T09:24:03.351Z,-2.28
2023-01-27T09:26:35.888Z,-2.23
2023-01-27T09:29:04.197Z,-2.20
2023-01-27T09:31:33.423Z,-2.21
2023-01-27T09:34:01.789Z,-2.19
2023-01-27T09:36:36.674Z,-2.14
2023-01-27T09:39:07.324Z,-2.11
2023-01-27T09:41:47.892Z,-2.10
2023-01-27T09:44:36.992Z,-2.12
2023-01-27T09:47:12.142Z,-2.13
2023-01-27T09:49:55.735Z,-2.15
2023-01-27T09:52:47.204Z,-2.13
2023-01-27T09:55:28.642Z,-2.07
2023-01-27T09:58:10.142Z,-2.03
2023-01-27T10:01:10.880Z,-2.00
2023-01-27T10:03:49.352Z,-1.95
2023-01-27T10:06:42.324Z,-1.92
2023-01-27T10:09:36.448Z,-1.91
2023-01-27T10:12:13.521Z,-1.87
2023-01-27T13:22:40.295Z,-1.31
2023-01-27T13:25:09.372Z,-1.19
2023-01-27T13:27:40.567Z,-1.20
2023-01-27T13:30:27.724Z,-1.20
2023-01-27T13:32:58.039Z,-1.22
2023-01-27T13:35:37.784Z,-1.27
2023-01-27T13:38:28.692Z,-1.33
2023-01-27T13:40:57.080Z,-1.36
2023-01-27T13:43:34.471Z,-1.40
2023-01-27T13:46:25.891Z,-1.46
2023-01-27T13:48:55.292Z,-1.49
2023-01-27T13:51:29.055Z,-1.54
2023-01-27T13:54:01.595Z,-1.57
2023-01-27T13:56:57.293Z,-1.61
2023-01-27T13:59:46.557Z,-1.67
2023-01-27T14:02:33.480Z,-1.73
2023-01-27T14:05:27.360Z,-1.81
2023-01-27T14:08:14.580Z,-1.90
2023-01-27T14:11:18.292Z,-1.97
2023-01-27T14:14:15.177Z,-2.03
2023-01-27T14:17:13.084Z,-2.09
2023-01-27T14:19:51.734Z,-2.16
2023-01-27T14:22:22.883Z,-2.20
2023-01-27T14:25:30.181Z,-2.26
2023-01-27T14:28:08.454Z,-2.34
2023-01-27T14:30:43.549Z,-2.38
2023-01-27T14:33:20.819Z,-2.39
2023-01-27T14:35:56.561Z,-2.39
2023-01-27T14:38:33.052Z,-2.42
2023-01-27T14:41:10.606Z,-2.44
2023-01-27T14:44:11.783Z,-2.47
2023-01-27T14:46:56.582Z,-2.53
2023-01-27T14:49:50.936Z,-2.56
2023-01-27T14:52:31.228Z,-2.58
2023-01-27T14:55:31.948Z,-2.60
2023-01-27T14:58:20.078Z,-2.62
2023-01-27T15:00:54.736Z,-2.64
2023-01-27T15:03:41.947Z,-2.65
2023-01-27T15:06:32.122Z,-2.65
2023-01-27T15:09:13.096Z,-2.66
2023-01-27T15:12:09.556Z,-2.64
2023-01-27T15:15:03.552Z,-2.61
2023-01-27T15:17:40.503Z,-2.60
2023-01-27T15:20:15.609Z,-2.60
2023-01-27T15:23:07.017Z,-2.58
2023-01-27T15:25:40.411Z,-2.58
2023-01-27T15:28:15.824Z,-2.58
2023-01-27T15:31:09.786Z,-2.59
2023-01-27T15:33:55.785Z,-2.61
2023-01-27T15:36:32.030Z,-2.61
2023-01-27T15:39:09.462Z,-2.60
2023-01-27T15:41:53.173Z,-2.61
2023-01-27T15:44:24.637Z,-2.63
2023-01-27T15:47:12.358Z,-2.66
2023-01-27T15:49:46.816Z,-2.69
2023-01-27T15:52:30.713Z,-2.73
2023-01-27T15:55:03.722Z,-2.73
2023-01-27T15:57:35.479Z,-2.72
2023-01-27T16:00:22.775Z,-2.71
2023-01-27T16:02:54.667Z,-2.71
2023-01-27T16:05:27.852Z,-2.73
2023-01-27T16:08:01.154Z,-2.75
2023-01-27T16:10:32.016Z,-2.77
2023-01-27T16:13:21.364Z,-2.79
2023-01-27T16:16:19.598Z,-2.80
2023-01-27T16:19:01.090Z,-2.82
2023-01-27T16:21:58.081Z,-2.84
2023-01-27T16:24:32.033Z,-2.89
2023-01-27T16:27:07.355Z,-2.96
2023-01-27T16:29:58.069Z,-3.01
2023-01-27T16:32:36.766Z,-3.05
2023-01-27T16:35:07.098Z,-3.07
2023-01-27T16:37:37.286Z,-3.07
2023-01-27T16:40:11.840Z,-3.05
2023-01-27T16:43:06.430Z,-3.03
2023-01-27T16:46:01.755Z,-3.02
2023-01-27T16:48:44.872Z,-3.03
2023-01-27T16:51:20.791Z,-3.04
2023-01-27T16:53:53.219Z,-3.06
2023-01-27T16:56:24.500Z,-3.07
2023-01-27T16:58:57.154Z,-3.07
2023-01-27T17:01:28.935Z,-3.08
2023-01-27T17:04:07.620Z,-3.08
2023-01-27T17:06:39.345Z,-3.08
2023-01-27T17:09:28.275Z,-3.06
2023-01-27T17:11:57.247Z,-3.05
2023-01-27T17:14:42.916Z,-3.03
2023-01-27T17:17:18.036Z,-3.00
2023-01-27T17:19:47.895Z,-2.97
2023-01-27T17:22:26.801Z,-2.93
2023-01-27T17:25:02.480Z,-2.90
2023-01-27T17:27:36.008Z,-2.91
2023-01-27T17:30:13.568Z,-2.91
2023-01-27T17:32:47.025Z,-2.88
2023-01-27T17:35:22.342Z,-2.86
2023-01-27T17:37:50.670Z,-2.86
2023-01-27T17:40:21.818Z,-2.86
2023-01-27T17:42:50.299Z,-2.87
2023-01-27T17:45:24.417Z,-2.91
2023-01-27T17:47:52.692Z,-2.93
2023-01-27T17:50:26.397Z,-2.99
2023-01-27T17:52:54.575Z,-3.10
2023-01-27T17:55:24.503Z,-3.21
2023-01-27T17:58:12.225Z,-3.28
2023-01-27T18:00:42.351Z,-3.32
2023-01-27T18:03:22.517Z,-3.34
2023-01-27T18:05:53.670Z,-3.37
2023-01-27T18:08:25.815Z,-3.39
2023-01-27T18:11:04.333Z,-3.40
2023-01-27T18:13:32.613Z,-3.40
2023-01-27T18:16:13.923Z,-3.40
2023-01-27T18:18:48.030Z,-3.39
2023-01-27T18:21:23.765Z,-3.39
2023-01-27T18:23:59.056Z,-3.39
2023-01-27T18:26:39.774Z,-3.37
2023-01-27T18:29:39.079Z,-3.34
2023-01-27T18:32:13.813Z,-3.30
2023-01-27T18:34:47.217Z,-3.30
2023-01-27T18:37:26.274Z,-3.31
2023-01-27T18:39:55.562Z,-3.32
2023-01-27T18:42:24.634Z,-3.31
2023-01-27T18:44:53.056Z,-3.30
2023-01-27T18:47:32.160Z,-3.30
2023-01-27T18:50:20.410Z,-3.29
2023-01-27T18:52:48.906Z,-3.27
2023-01-27T18:55:23.922Z,-3.26
2023-01-27T18:57:57.009Z,-3.25
2023-01-27T19:00:35.120Z,-3.23
2023-01-27T19:03:04.091Z,-3.22
2023-01-27T19:05:34.371Z,-3.21
2023-01-27T19:08:06.571Z,-3.20
2023-01-27T19:10:35.291Z,-3.18
2023-01-27T19:13:04.302Z,-3.18
2023-01-27T19:15:50.356Z,-3.17
2023-01-27T19:18:27.241Z,-3.16
2023-01-27T19:20:55.746Z,-3.14
2023-01-27T19:23:29.850Z,-3.12
2023-01-27T19:25:58.753Z,-3.11
2023-01-27T19:28:32.154Z,-3.11
2023-01-27T19:31:00.657Z,-3.12
2023-01-27T19:33:29.745Z,-3.11
2023-01-27T19:36:11.023Z,-3.07
2023-01-27T19:38:39.441Z,-3.08
2023-01-27T19:41:10.606Z,-3.09
2023-01-27T19:43:39.085Z,-3.09
2023-01-27T19:46:15.111Z,-3.10
2023-01-27T19:48:43.904Z,-3.09
2023-01-27T19:51:12.023Z,-3.09
2023-01-27T19:53:46.695Z,-3.08
2023-01-27T19:56:19.702Z,-3.07
2023-01-27T19:58:52.914Z,-3.06
2023-01-27T20:01:24.981Z,-3.05
2023-01-27T20:03:53.890Z,-3.05
2023-01-27T20:06:27.566Z,-3.06
2023-01-27T20:08:57.421Z,-3.04
2023-01-27T21:12:42.434Z,-3.22
2023-01-27T21:15:11.369Z,-3.05
2023-01-27T21:17:40.928Z,-3.02
2023-01-27T21:20:10.762Z,-3.02
2023-01-27T21:22:39.386Z,-3.01
2023-01-27T21:25:09.291Z,-3.00
2023-01-27T21:27:42.023Z,-3.01
2023-01-27T21:30:11.803Z,-3.03
2023-01-27T21:32:41.188Z,-3.04
2023-01-27T21:35:11.691Z,-3.05
2023-01-27T21:37:40.520Z,-3.06
2023-01-27T21:40:09.741Z,-3.09
2023-01-27T21:43:01.340Z,-3.11
2023-01-27T21:45:29.717Z,-3.14
2023-01-27T21:47:58.107Z,-3.15
2023-01-27T21:50:28.855Z,-3.16
2023-01-27T21:52:58.445Z,-3.17
2023-01-27T21:55:28.257Z,-3.18
2023-01-27T21:57:56.553Z,-3.19
2023-01-27T22:00:26.980Z,-3.18
2023-01-27T22:02:59.716Z,-3.18
2023-01-27T22:05:28.704Z,-3.19
2023-01-27T22:07:57.527Z,-3.19
2023-01-27T22:10:27.355Z,-3.18
2023-01-27T22:13:04.746Z,-3.17
2023-01-27T22:15:35.067Z,-3.16
2023-01-27T22:18:07.440Z,-3.16
2023-01-27T22:20:36.238Z,-3.16
2023-01-27T22:23:04.566Z,-3.17
2023-01-27T22:25:33.504Z,-3.20
2023-01-27T22:28:02.206Z,-3.24
2023-01-27T22:30:32.768Z,-3.25
2023-01-27T22:33:04.086Z,-3.27
2023-01-27T22:35:33.890Z,-3.32
2023-01-27T22:38:02.707Z,-3.38
2023-01-27T22:40:33.724Z,-3.42
2023-01-27T22:43:09.326Z,-3.46
2023-01-27T22:45:41.073Z,-3.51
2023-01-27T22:48:10.141Z,-3.56
2023-01-27T22:50:40.821Z,-3.60
2023-01-27T22:53:11.199Z,-3.63
2023-01-27T22:55:39.374Z,-3.65
2023-01-27T22:58:08.982Z,-3.69
2023-01-27T23:00:37.254Z,-3.72
2023-01-27T23:03:05.644Z,-3.73
2023-01-27T23:05:34.842Z,-3.72
2023-01-27T23:08:03.214Z,-3.71
2023-01-27T23:10:31.596Z,-3.71
2023-01-27T23:12:59.975Z,-3.74
2023-01-27T23:15:32.040Z,-3.77
2023-01-27T23:18:01.144Z,-3.79
2023-01-27T23:20:29.443Z,-3.82
2023-01-27T23:22:58.308Z,-3.82
2023-01-27T23:25:26.701Z,-3.85
2023-01-27T23:27:55.081Z,-3.87
2023-01-27T23:30:23.662Z,-3.89
2023-01-27T23:32:57.476Z,-3.90
2023-01-27T23:35:26.053Z,-3.91
2023-01-27T23:37:54.429Z,-3.90
2023-01-27T23:40:22.815Z,-3.91
2023-01-27T23:42:52.415Z,-3.93
2023-01-27T23:45:20.899Z,-3.96
2023-01-27T23:47:49.384Z,-3.97
2023-01-27T23:50:18.053Z,-3.98
2023-01-27T23:52:46.345Z,-4.02
2023-01-27T23:55:15.279Z,-4.06
2023-01-27T23:57:43.951Z,-4.11
